sensor_id;sensor_type;location;lat;lon;timestamp;P1;durP1;ratioP1;P2;durP2;ratioP2
36457;SDS011;22480;50.546;12.292;2022-09-01T00:02:14;4.80;;;3.75;;
36457;SDS011;22480;50.546;12.292;2022-09-01T00:04:40;5.45;;;4.10;;
36457;SDS011;22480;50.546;12.292;2022-09-01T00:07:08;4.97;;;4.07;;
36457;SDS011;22480;50.546;12.292;2022-09-01T00:09:36;5.13;;;4.20;;
36457;SDS011;22480;50.546;12.292;2022-09-01T00:12:03;5.60;;;4.47;;
36457;SDS011;22480;50.546;12.292;2022-09-01T00:14:32;7.07;;;4.90;;
36457;SDS011;22480;50.546;12.292;2022-09-01T00:19:29;4.45;;;4.05;;
36457;SDS011;22480;50.546;12.292;2022-09-01T00:21:55;6.13;;;4.78;;
36457;SDS011;22480;50.546;12.292;2022-09-01T00:24:21;7.00;;;4.70;;
36457;SDS011;22480;50.546;12.292;2022-09-01T00:26:47;7.95;;;5.80;;
36457;SDS011;22480;50.546;12.292;2022-09-01T00:29:13;6.03;;;5.43;;
36457;SDS011;22480;50.546;12.292;2022-09-01T00:31:39;7.03;;;6.00;;
36457;SDS011;22480;50.546;12.292;2022-09-01T00:34:05;8.27;;;7.03;;
36457;SDS011;22480;50.546;12.292;2022-09-01T00:36:31;7.28;;;6.18;;
36457;SDS011;22480;50.546;12.292;2022-09-01T00:38:57;7.38;;;6.57;;
36457;SDS011;22480;50.546;12.292;2022-09-01T00:41:24;10.27;;;7.70;;
36457;SDS011;22480;50.546;12.292;2022-09-01T00:43:55;10.38;;;7.25;;
36457;SDS011;22480;50.546;12.292;2022-09-01T00:46:28;8.88;;;6.57;;
36457;SDS011;22480;50.546;12.292;2022-09-01T00:51:53;9.98;;;7.93;;
36457;SDS011;22480;50.546;12.292;2022-09-01T00:54:24;7.88;;;6.90;;
36457;SDS011;22480;50.546;12.292;2022-09-01T00:56:53;9.30;;;8.30;;
36457;SDS011;22480;50.546;12.292;2022-09-01T00:59:20;9.82;;;8.75;;
36457;SDS011;22480;50.546;12.292;2022-09-01T01:01:49;9.55;;;8.68;;
36457;SDS011;22480;50.546;12.292;2022-09-01T01:04:15;8.93;;;8.07;;
36457;SDS011;22480;50.546;12.292;2022-09-01T01:06:42;9.60;;;8.60;;
36457;SDS011;22480;50.546;12.292;2022-09-01T01:09:16;9.68;;;8.68;;
36457;SDS011;22480;50.546;12.292;2022-09-01T01:11:44;10.23;;;9.20;;
36457;SDS011;22480;50.546;12.292;2022-09-01T01:14:12;9.27;;;8.38;;
36457;SDS011;22480;50.546;12.292;2022-09-01T01:16:47;10.73;;;9.63;;
36457;SDS011;22480;50.546;12.292;2022-09-01T01:22:10;9.90;;;8.90;;
36457;SDS011;22480;50.546;12.292;2022-09-01T01:25:02;9.40;;;8.40;;
36457;SDS011;22480;50.546;12.292;2022-09-01T01:27:32;9.48;;;8.55;;
36457;SDS011;22480;50.546;12.292;2022-09-01T01:32:26;9.90;;;8.77;;
36457;SDS011;22480;50.546;12.292;2022-09-01T01:34:53;13.35;;;9.80;;
36457;SDS011;22480;50.546;12.292;2022-09-01T01:37:20;11.05;;;9.75;;
36457;SDS011;22480;50.546;12.292;2022-09-01T01:39:50;18.50;;;13.95;;
36457;SDS011;22480;50.546;12.292;2022-09-01T01:42:16;15.82;;;13.02;;
36457;SDS011;22480;50.546;12.292;2022-09-01T01:44:42;13.05;;;11.75;;
36457;SDS011;22480;50.546;12.292;2022-09-01T01:47:10;15.05;;;12.52;;
36457;SDS011;22480;50.546;12.292;2022-09-01T01:49:38;22.52;;;16.15;;
36457;SDS011;22480;50.546;12.292;2022-09-01T01:52:08;21.02;;;17.23;;
36457;SDS011;22480;50.546;12.292;2022-09-01T01:54:39;20.65;;;16.60;;
36457;SDS011;22480;50.546;12.292;2022-09-01T01:57:05;22.10;;;17.70;;
36457;SDS011;22480;50.546;12.292;2022-09-01T01:59:32;22.10;;;17.80;;
36457;SDS011;22480;50.546;12.292;2022-09-01T02:01:58;19.67;;;16.45;;
36457;SDS011;22480;50.546;12.292;2022-09-01T02:04:27;17.52;;;15.23;;
36457;SDS011;22480;50.546;12.292;2022-09-01T02:07:03;18.95;;;14.65;;
36457;SDS011;22480;50.546;12.292;2022-09-01T02:09:30;18.85;;;14.25;;
36457;SDS011;22480;50.546;12.292;2022-09-01T02:11:58;21.48;;;14.68;;
36457;SDS011;22480;50.546;12.292;2022-09-01T02:14:24;18.98;;;15.30;;
36457;SDS011;22480;50.546;12.292;2022-09-01T02:16:50;18.58;;;14.57;;
36457;SDS011;22480;50.546;12.292;2022-09-01T02:19:20;17.77;;;15.02;;
36457;SDS011;22480;50.546;12.292;2022-09-01T02:21:45;14.18;;;12.65;;
36457;SDS011;22480;50.546;12.292;2022-09-01T02:24:17;16.58;;;13.05;;
36457;SDS011;22480;50.546;12.292;2022-09-01T02:26:43;15.07;;;12.55;;
36457;SDS011;22480;50.546;12.292;2022-09-01T02:29:13;15.43;;;12.60;;
36457;SDS011;22480;50.546;12.292;2022-09-01T02:31:47;12.93;;;10.52;;
36457;SDS011;22480;50.546;12.292;2022-09-01T02:34:15;13.97;;;11.00;;
36457;SDS011;22480;50.546;12.292;2022-09-01T02:36:46;13.52;;;11.93;;
36457;SDS011;22480;50.546;12.292;2022-09-01T02:39:19;17.65;;;14.48;;
36457;SDS011;22480;50.546;12.292;2022-09-01T02:41:48;15.50;;;13.82;;
36457;SDS011;22480;50.546;12.292;2022-09-01T02:44:19;18.23;;;15.30;;
36457;SDS011;22480;50.546;12.292;2022-09-01T02:46:46;20.45;;;16.75;;
36457;SDS011;22480;50.546;12.292;2022-09-01T02:49:14;19.88;;;16.58;;
36457;SDS011;22480;50.546;12.292;2022-09-01T02:51:45;14.18;;;12.52;;
36457;SDS011;22480;50.546;12.292;2022-09-01T02:54:13;16.58;;;14.02;;
36457;SDS011;22480;50.546;12.292;2022-09-01T02:59:12;14.55;;;12.30;;
36457;SDS011;22480;50.546;12.292;2022-09-01T03:04:11;18.15;;;15.05;;
36457;SDS011;22480;50.546;12.292;2022-09-01T03:06:37;16.17;;;13.60;;
36457;SDS011;22480;50.546;12.292;2022-09-01T03:09:05;18.27;;;15.13;;
36457;SDS011;22480;50.546;12.292;2022-09-01T03:11:36;19.25;;;14.57;;
36457;SDS011;22480;50.546;12.292;2022-09-01T03:14:07;19.63;;;14.93;;
36457;SDS011;22480;50.546;12.292;2022-09-01T03:16:33;20.38;;;15.98;;
36457;SDS011;22480;50.546;12.292;2022-09-01T03:19:01;15.15;;;12.77;;
36457;SDS011;22480;50.546;12.292;2022-09-01T03:21:28;20.92;;;14.10;;
36457;SDS011;22480;50.546;12.292;2022-09-01T03:23:56;17.25;;;13.43;;
36457;SDS011;22480;50.546;12.292;2022-09-01T03:26:22;16.90;;;13.70;;
36457;SDS011;22480;50.546;12.292;2022-09-01T03:28:49;19.52;;;13.48;;
36457;SDS011;22480;50.546;12.292;2022-09-01T03:31:16;16.33;;;14.00;;
36457;SDS011;22480;50.546;12.292;2022-09-01T03:33:44;22.17;;;14.48;;
36457;SDS011;22480;50.546;12.292;2022-09-01T03:36:18;21.30;;;14.13;;
36457;SDS011;22480;50.546;12.292;2022-09-01T03:38:45;23.35;;;16.75;;
36457;SDS011;22480;50.546;12.292;2022-09-01T03:41:14;18.58;;;16.35;;
36457;SDS011;22480;50.546;12.292;2022-09-01T03:43:42;19.45;;;15.73;;
36457;SDS011;22480;50.546;12.292;2022-09-01T03:46:09;21.65;;;16.10;;
36457;SDS011;22480;50.546;12.292;2022-09-01T03:48:40;19.90;;;15.32;;
36457;SDS011;22480;50.546;12.292;2022-09-01T03:51:07;17.98;;;14.88;;
36457;SDS011;22480;50.546;12.292;2022-09-01T03:53:36;19.70;;;14.02;;
36457;SDS011;22480;50.546;12.292;2022-09-01T03:56:04;19.77;;;15.73;;
36457;SDS011;22480;50.546;12.292;2022-09-01T03:58:31;20.02;;;14.65;;
36457;SDS011;22480;50.546;12.292;2022-09-01T04:00:58;17.33;;;14.60;;
36457;SDS011;22480;50.546;12.292;2022-09-01T04:03:30;16.15;;;13.27;;
36457;SDS011;22480;50.546;12.292;2022-09-01T04:05:59;17.80;;;14.50;;
36457;SDS011;22480;50.546;12.292;2022-09-01T04:08:27;19.92;;;14.98;;
36457;SDS011;22480;50.546;12.292;2022-09-01T04:10:57;18.60;;;13.07;;
36457;SDS011;22480;50.546;12.292;2022-09-01T04:13:34;18.33;;;13.52;;
36457;SDS011;22480;50.546;12.292;2022-09-01T04:16:02;17.95;;;14.05;;
36457;SDS011;22480;50.546;12.292;2022-09-01T04:18:35;19.58;;;13.80;;
36457;SDS011;22480;50.546;12.292;2022-09-01T04:21:03;17.05;;;13.95;;
36457;SDS011;22480;50.546;12.292;2022-09-01T04:23:32;17.13;;;13.57;;
36457;SDS011;22480;50.546;12.292;2022-09-01T04:26:09;17.33;;;13.65;;
36457;SDS011;22480;50.546;12.292;2022-09-01T04:28:40;16.42;;;13.15;;
36457;SDS011;22480;50.546;12.292;2022-09-01T04:33:43;19.13;;;14.07;;
36457;SDS011;22480;50.546;12.292;2022-09-01T04:38:47;23.38;;;18.25;;
36457;SDS011;22480;50.546;12.292;2022-09-01T04:41:23;24.27;;;19.80;;
36457;SDS011;22480;50.546;12.292;2022-09-01T04:43:55;27.50;;;22.63;;
36457;SDS011;22480;50.546;12.292;2022-09-01T04:46:24;32.65;;;24.30;;
36457;SDS011;22480;50.546;12.292;2022-09-01T04:48:52;31.23;;;24.73;;
36457;SDS011;22480;50.546;12.292;2022-09-01T04:51:19;37.65;;;26.45;;
36457;SDS011;22480;50.546;12.292;2022-09-01T04:56:17;28.00;;;22.60;;
36457;SDS011;22480;50.546;12.292;2022-09-01T04:58:50;30.00;;;22.35;;
36457;SDS011;22480;50.546;12.292;2022-09-01T05:01:21;27.58;;;21.98;;
36457;SDS011;22480;50.546;12.292;2022-09-01T05:03:49;26.40;;;20.38;;
36457;SDS011;22480;50.546;12.292;2022-09-01T05:06:35;25.42;;;20.42;;
36457;SDS011;22480;50.546;12.292;2022-09-01T05:09:04;24.58;;;19.88;;
36457;SDS011;22480;50.546;12.292;2022-09-01T05:11:45;22.83;;;19.50;;
36457;SDS011;22480;50.546;12.292;2022-09-01T05:14:21;21.33;;;18.33;;
36457;SDS011;22480;50.546;12.292;2022-09-01T05:16:48;22.88;;;16.63;;
36457;SDS011;22480;50.546;12.292;2022-09-01T05:19:15;19.90;;;17.00;;
36457;SDS011;22480;50.546;12.292;2022-09-01T05:24:17;19.15;;;16.83;;
36457;SDS011;22480;50.546;12.292;2022-09-01T05:26:46;19.73;;;15.10;;
36457;SDS011;22480;50.546;12.292;2022-09-01T05:29:15;18.35;;;15.18;;
36457;SDS011;22480;50.546;12.292;2022-09-01T05:31:45;16.85;;;15.15;;
36457;SDS011;22480;50.546;12.292;2022-09-01T05:34:13;15.68;;;14.07;;
36457;SDS011;22480;50.546;12.292;2022-09-01T05:36:44;13.77;;;11.40;;
36457;SDS011;22480;50.546;12.292;2022-09-01T05:39:14;10.32;;;8.23;;
36457;SDS011;22480;50.546;12.292;2022-09-01T05:41:40;9.23;;;8.02;;
36457;SDS011;22480;50.546;12.292;2022-09-01T05:44:07;9.75;;;6.63;;
36457;SDS011;22480;50.546;12.292;2022-09-01T05:46:35;7.40;;;5.57;;
36457;SDS011;22480;50.546;12.292;2022-09-01T05:49:03;6.22;;;4.70;;
36457;SDS011;22480;50.546;12.292;2022-09-01T05:51:32;5.30;;;4.72;;
36457;SDS011;22480;50.546;12.292;2022-09-01T05:54:01;6.45;;;4.50;;
36457;SDS011;22480;50.546;12.292;2022-09-01T05:56:29;7.78;;;4.30;;
36457;SDS011;22480;50.546;12.292;2022-09-01T05:58:58;5.53;;;4.07;;
36457;SDS011;22480;50.546;12.292;2022-09-01T06:01:26;5.97;;;4.82;;
36457;SDS011;22480;50.546;12.292;2022-09-01T06:03:55;6.75;;;4.35;;
36457;SDS011;22480;50.546;12.292;2022-09-01T06:06:27;4.88;;;4.40;;
36457;SDS011;22480;50.546;12.292;2022-09-01T06:08:55;5.90;;;4.75;;
36457;SDS011;22480;50.546;12.292;2022-09-01T06:11:24;6.15;;;3.95;;
36457;SDS011;22480;50.546;12.292;2022-09-01T06:13:51;5.40;;;4.38;;
36457;SDS011;22480;50.546;12.292;2022-09-01T06:18:49;5.13;;;4.63;;
36457;SDS011;22480;50.546;12.292;2022-09-01T06:21:19;7.47;;;4.40;;
36457;SDS011;22480;50.546;12.292;2022-09-01T06:23:49;5.13;;;4.50;;
36457;SDS011;22480;50.546;12.292;2022-09-01T06:26:28;5.70;;;3.47;;
36457;SDS011;22480;50.546;12.292;2022-09-01T06:29:00;5.75;;;3.83;;
36457;SDS011;22480;50.546;12.292;2022-09-01T06:34:04;4.97;;;3.17;;
36457;SDS011;22480;50.546;12.292;2022-09-01T06:36:34;4.30;;;3.67;;
36457;SDS011;22480;50.546;12.292;2022-09-01T06:39:02;5.68;;;3.33;;
36457;SDS011;22480;50.546;12.292;2022-09-01T06:41:28;5.22;;;4.00;;
36457;SDS011;22480;50.546;12.292;2022-09-01T06:43:55;4.03;;;3.65;;
36457;SDS011;22480;50.546;12.292;2022-09-01T06:46:22;4.10;;;3.78;;
36457;SDS011;22480;50.546;12.292;2022-09-01T06:51:19;3.13;;;2.83;;
36457;SDS011;22480;50.546;12.292;2022-09-01T06:53:50;4.45;;;3.00;;
36457;SDS011;22480;50.546;12.292;2022-09-01T06:56:21;5.38;;;2.70;;
36457;SDS011;22480;50.546;12.292;2022-09-01T06:58:50;3.50;;;2.25;;
36457;SDS011;22480;50.546;12.292;2022-09-01T07:01:18;2.90;;;2.30;;
36457;SDS011;22480;50.546;12.292;2022-09-01T07:03:49;3.25;;;1.92;;
36457;SDS011;22480;50.546;12.292;2022-09-01T07:06:23;4.43;;;2.30;;
36457;SDS011;22480;50.546;12.292;2022-09-01T07:09:11;2.72;;;2.05;;
36457;SDS011;22480;50.546;12.292;2022-09-01T07:11:39;6.45;;;2.75;;
36457;SDS011;22480;50.546;12.292;2022-09-01T07:14:05;3.33;;;2.60;;
36457;SDS011;22480;50.546;12.292;2022-09-01T07:16:33;3.50;;;2.88;;
36457;SDS011;22480;50.546;12.292;2022-09-01T07:19:05;3.63;;;2.90;;
36457;SDS011;22480;50.546;12.292;2022-09-01T07:21:44;4.07;;;2.40;;
36457;SDS011;22480;50.546;12.292;2022-09-01T07:24:12;3.83;;;2.38;;
36457;SDS011;22480;50.546;12.292;2022-09-01T07:26:59;2.97;;;2.10;;
36457;SDS011;22480;50.546;12.292;2022-09-01T07:29:25;3.17;;;1.80;;
36457;SDS011;22480;50.546;12.292;2022-09-01T07:31:52;3.13;;;1.73;;
36457;SDS011;22480;50.546;12.292;2022-09-01T07:34:20;2.47;;;1.70;;
36457;SDS011;22480;50.546;12.292;2022-09-01T07:36:47;4.18;;;2.00;;
36457;SDS011;22480;50.546;12.292;2022-09-01T07:39:14;3.17;;;1.88;;
36457;SDS011;22480;50.546;12.292;2022-09-01T07:41:47;2.92;;;2.00;;
36457;SDS011;22480;50.546;12.292;2022-09-01T07:44:32;4.13;;;1.70;;
36457;SDS011;22480;50.546;12.292;2022-09-01T07:47:21;5.03;;;2.13;;
36457;SDS011;22480;50.546;12.292;2022-09-01T07:49:47;2.05;;;1.77;;
36457;SDS011;22480;50.546;12.292;2022-09-01T07:52:13;2.22;;;1.52;;
36457;SDS011;22480;50.546;12.292;2022-09-01T07:54:41;4.32;;;1.70;;
36457;SDS011;22480;50.546;12.292;2022-09-01T07:57:07;3.33;;;1.35;;
36457;SDS011;22480;50.546;12.292;2022-09-01T07:59:33;3.75;;;2.10;;
36457;SDS011;22480;50.546;12.292;2022-09-01T08:02:05;3.97;;;1.38;;
36457;SDS011;22480;50.546;12.292;2022-09-01T08:04:31;1.83;;;1.33;;
36457;SDS011;22480;50.546;12.292;2022-09-01T08:06:58;2.47;;;1.50;;
36457;SDS011;22480;50.546;12.292;2022-09-01T08:09:26;4.32;;;1.40;;
36457;SDS011;22480;50.546;12.292;2022-09-01T08:11:51;2.08;;;1.50;;
36457;SDS011;22480;50.546;12.292;2022-09-01T08:14:18;2.08;;;1.52;;
36457;SDS011;22480;50.546;12.292;2022-09-01T08:16:44;2.22;;;1.35;;
36457;SDS011;22480;50.546;12.292;2022-09-01T08:19:10;1.90;;;1.38;;
36457;SDS011;22480;50.546;12.292;2022-09-01T08:21:55;4.43;;;1.33;;
36457;SDS011;22480;50.546;12.292;2022-09-01T08:24:30;4.57;;;1.45;;
36457;SDS011;22480;50.546;12.292;2022-09-01T08:26:56;3.72;;;1.60;;
36457;SDS011;22480;50.546;12.292;2022-09-01T08:29:22;2.10;;;1.20;;
36457;SDS011;22480;50.546;12.292;2022-09-01T08:31:48;5.78;;;1.25;;
36457;SDS011;22480;50.546;12.292;2022-09-01T08:34:13;3.05;;;1.23;;
36457;SDS011;22480;50.546;12.292;2022-09-01T08:36:41;2.05;;;1.42;;
36457;SDS011;22480;50.546;12.292;2022-09-01T08:39:07;3.78;;;1.40;;
36457;SDS011;22480;50.546;12.292;2022-09-01T08:46:57;5.15;;;1.77;;
36457;SDS011;22480;50.546;12.292;2022-09-01T08:49:27;3.50;;;1.15;;
36457;SDS011;22480;50.546;12.292;2022-09-01T08:52:33;2.58;;;1.10;;
36457;SDS011;22480;50.546;12.292;2022-09-01T08:57:44;3.08;;;1.13;;
36457;SDS011;22480;50.546;12.292;2022-09-01T09:00:32;1.75;;;1.15;;
36457;SDS011;22480;50.546;12.292;2022-09-01T09:03:16;4.40;;;1.40;;
36457;SDS011;22480;50.546;12.292;2022-09-01T09:05:56;2.75;;;0.85;;
36457;SDS011;22480;50.546;12.292;2022-09-01T09:09:01;1.85;;;1.02;;
36457;SDS011;22480;50.546;12.292;2022-09-01T09:17:13;2.38;;;0.95;;
36457;SDS011;22480;50.546;12.292;2022-09-01T09:19:44;2.90;;;0.98;;
36457;SDS011;22480;50.546;12.292;2022-09-01T09:22:14;4.30;;;0.93;;
36457;SDS011;22480;50.546;12.292;2022-09-01T09:27:29;3.03;;;1.50;;
36457;SDS011;22480;50.546;12.292;2022-09-01T09:29:56;3.53;;;1.15;;
36457;SDS011;22480;50.546;12.292;2022-09-01T09:37:51;1.42;;;1.00;;
36457;SDS011;22480;50.546;12.292;2022-09-01T09:40:18;3.53;;;1.15;;
36457;SDS011;22480;50.546;12.292;2022-09-01T09:45:27;3.38;;;1.35;;
36457;SDS011;22480;50.546;12.292;2022-09-01T09:47:58;3.28;;;1.08;;
36457;SDS011;22480;50.546;12.292;2022-09-01T09:50:28;2.03;;;1.00;;
36457;SDS011;22480;50.546;12.292;2022-09-01T09:58:38;3.40;;;1.40;;
36457;SDS011;22480;50.546;12.292;2022-09-01T10:06:33;2.20;;;0.90;;
36457;SDS011;22480;50.546;12.292;2022-09-01T10:09:06;2.75;;;0.70;;
36457;SDS011;22480;50.546;12.292;2022-09-01T10:11:39;1.25;;;0.90;;
36457;SDS011;22480;50.546;12.292;2022-09-01T10:14:11;1.35;;;0.80;;
36457;SDS011;22480;50.546;12.292;2022-09-01T10:16:41;3.78;;;0.93;;
36457;SDS011;22480;50.546;12.292;2022-09-01T10:19:10;1.63;;;0.90;;
36457;SDS011;22480;50.546;12.292;2022-09-01T10:21:37;5.30;;;0.88;;
36457;SDS011;22480;50.546;12.292;2022-09-01T10:26:50;2.00;;;0.75;;
36457;SDS011;22480;50.546;12.292;2022-09-01T10:29:27;2.92;;;0.77;;
36457;SDS011;22480;50.546;12.292;2022-09-01T10:31:58;2.00;;;0.90;;
36457;SDS011;22480;50.546;12.292;2022-09-01T10:34:26;0.95;;;0.63;;
36457;SDS011;22480;50.546;12.292;2022-09-01T10:36:57;1.73;;;0.68;;
36457;SDS011;22480;50.546;12.292;2022-09-01T10:39:24;2.70;;;1.10;;
36457;SDS011;22480;50.546;12.292;2022-09-01T10:41:53;2.78;;;0.77;;
36457;SDS011;22480;50.546;12.292;2022-09-01T10:44:22;1.77;;;0.80;;
36457;SDS011;22480;50.546;12.292;2022-09-01T10:46:54;2.20;;;0.90;;
36457;SDS011;22480;50.546;12.292;2022-09-01T10:51:56;1.75;;;0.90;;
36457;SDS011;22480;50.546;12.292;2022-09-01T10:59:55;2.55;;;1.00;;
36457;SDS011;22480;50.546;12.292;2022-09-01T11:05:59;4.45;;;1.67;;
36457;SDS011;22480;50.546;12.292;2022-09-01T11:13:57;2.20;;;1.10;;
36457;SDS011;22480;50.546;12.292;2022-09-01T11:16:31;3.58;;;1.35;;
36457;SDS011;22480;50.546;12.292;2022-09-01T11:19:15;3.25;;;1.20;;
36457;SDS011;22480;50.546;12.292;2022-09-01T11:27:06;2.13;;;0.98;;
36457;SDS011;22480;50.546;12.292;2022-09-01T11:32:26;3.88;;;1.40;;
36457;SDS011;22480;50.546;12.292;2022-09-01T11:35:04;4.32;;;1.00;;
36457;SDS011;22480;50.546;12.292;2022-09-01T11:37:38;6.50;;;1.75;;
36457;SDS011;22480;50.546;12.292;2022-09-01T11:40:05;5.47;;;1.38;;
36457;SDS011;22480;50.546;12.292;2022-09-01T11:42:39;4.47;;;1.02;;
36457;SDS011;22480;50.546;12.292;2022-09-01T11:45:13;5.68;;;1.38;;
36457;SDS011;22480;50.546;12.292;2022-09-01T11:47:46;4.40;;;1.02;;
36457;SDS011;22480;50.546;12.292;2022-09-01T11:50:18;2.22;;;1.02;;
36457;SDS011;22480;50.546;12.292;2022-09-01T11:52:51;2.08;;;1.27;;
36457;SDS011;22480;50.546;12.292;2022-09-01T11:55:29;1.50;;;1.02;;
36457;SDS011;22480;50.546;12.292;2022-09-01T11:57:56;2.17;;;0.70;;
36457;SDS011;22480;50.546;12.292;2022-09-01T12:00:56;2.28;;;1.10;;
36457;SDS011;22480;50.546;12.292;2022-09-01T12:03:19;3.65;;;1.02;;
36457;SDS011;22480;50.546;12.292;2022-09-01T12:05:48;2.88;;;1.10;;
36457;SDS011;22480;50.546;12.292;2022-09-01T12:08:23;1.95;;;1.20;;
36457;SDS011;22480;50.546;12.292;2022-09-01T12:11:01;1.88;;;0.80;;
36457;SDS011;22480;50.546;12.292;2022-09-01T12:13:30;1.63;;;0.90;;
36457;SDS011;22480;50.546;12.292;2022-09-01T12:16:00;2.15;;;0.82;;
36457;SDS011;22480;50.546;12.292;2022-09-01T12:18:30;1.52;;;0.80;;
36457;SDS011;22480;50.546;12.292;2022-09-01T12:21:00;2.45;;;0.70;;
36457;SDS011;22480;50.546;12.292;2022-09-01T12:23:29;3.17;;;0.95;;
36457;SDS011;22480;50.546;12.292;2022-09-01T12:26:00;2.15;;;0.80;;
36457;SDS011;22480;50.546;12.292;2022-09-01T12:28:33;3.05;;;1.35;;
36457;SDS011;22480;50.546;12.292;2022-09-01T12:31:04;1.20;;;0.80;;
36457;SDS011;22480;50.546;12.292;2022-09-01T12:33:32;3.25;;;0.95;;
36457;SDS011;22480;50.546;12.292;2022-09-01T12:38:42;0.80;;;0.60;;
36457;SDS011;22480;50.546;12.292;2022-09-01T12:41:31;3.65;;;1.33;;
36457;SDS011;22480;50.546;12.292;2022-09-01T12:44:24;4.10;;;1.00;;
36457;SDS011;22480;50.546;12.292;2022-09-01T12:46:53;2.55;;;0.80;;
36457;SDS011;22480;50.546;12.292;2022-09-01T12:52:05;2.05;;;0.85;;
36457;SDS011;22480;50.546;12.292;2022-09-01T12:54:34;2.40;;;0.90;;
36457;SDS011;22480;50.546;12.292;2022-09-01T12:57:01;1.70;;;1.00;;
36457;SDS011;22480;50.546;12.292;2022-09-01T12:59:26;1.63;;;0.88;;
36457;SDS011;22480;50.546;12.292;2022-09-01T13:01:52;1.80;;;0.75;;
36457;SDS011;22480;50.546;12.292;2022-09-01T13:04:22;1.55;;;0.80;;
36457;SDS011;22480;50.546;12.292;2022-09-01T13:06:59;2.67;;;0.98;;
36457;SDS011;22480;50.546;12.292;2022-09-01T13:09:27;2.25;;;0.70;;
36457;SDS011;22480;50.546;12.292;2022-09-01T13:11:52;1.02;;;0.70;;
36457;SDS011;22480;50.546;12.292;2022-09-01T13:14:32;1.55;;;0.82;;
36457;SDS011;22480;50.546;12.292;2022-09-01T13:16:58;2.05;;;0.77;;
36457;SDS011;22480;50.546;12.292;2022-09-01T13:19:24;4.88;;;1.42;;
36457;SDS011;22480;50.546;12.292;2022-09-01T13:21:49;3.05;;;0.80;;
36457;SDS011;22480;50.546;12.292;2022-09-01T13:24:15;2.20;;;0.90;;
36457;SDS011;22480;50.546;12.292;2022-09-01T13:26:41;0.90;;;0.60;;
36457;SDS011;22480;50.546;12.292;2022-09-01T13:29:10;1.77;;;0.73;;
36457;SDS011;22480;50.546;12.292;2022-09-01T13:31:36;1.55;;;0.70;;
36457;SDS011;22480;50.546;12.292;2022-09-01T13:34:01;1.95;;;1.05;;
36457;SDS011;22480;50.546;12.292;2022-09-01T13:36:27;8.48;;;1.15;;
36457;SDS011;22480;50.546;12.292;2022-09-01T13:38:52;2.20;;;0.75;;
36457;SDS011;22480;50.546;12.292;2022-09-01T13:41:18;1.95;;;0.80;;
36457;SDS011;22480;50.546;12.292;2022-09-01T13:43:44;3.50;;;0.90;;
36457;SDS011;22480;50.546;12.292;2022-09-01T13:46:11;1.95;;;0.68;;
36457;SDS011;22480;50.546;12.292;2022-09-01T13:48:36;1.65;;;0.90;;
36457;SDS011;22480;50.546;12.292;2022-09-01T13:51:03;1.95;;;0.60;;
36457;SDS011;22480;50.546;12.292;2022-09-01T13:53:28;0.90;;;0.63;;
36457;SDS011;22480;50.546;12.292;2022-09-01T13:55:54;2.78;;;0.93;;
36457;SDS011;22480;50.546;12.292;2022-09-01T13:58:20;3.83;;;1.08;;
36457;SDS011;22480;50.546;12.292;2022-09-01T14:00:45;3.22;;;0.88;;
36457;SDS011;22480;50.546;12.292;2022-09-01T14:03:16;2.78;;;1.08;;
36457;SDS011;22480;50.546;12.292;2022-09-01T14:05:46;0.90;;;0.70;;
36457;SDS011;22480;50.546;12.292;2022-09-01T14:08:13;1.85;;;0.80;;
36457;SDS011;22480;50.546;12.292;2022-09-01T14:10:41;4.55;;;1.20;;
36457;SDS011;22480;50.546;12.292;2022-09-01T14:13:09;1.17;;;0.75;;
36457;SDS011;22480;50.546;12.292;2022-09-01T14:15:36;2.63;;;1.00;;
36457;SDS011;22480;50.546;12.292;2022-09-01T14:18:02;3.38;;;1.05;;
36457;SDS011;22480;50.546;12.292;2022-09-01T14:20:33;1.08;;;0.60;;
36457;SDS011;22480;50.546;12.292;2022-09-01T14:23:03;3.03;;;0.90;;
36457;SDS011;22480;50.546;12.292;2022-09-01T14:25:31;1.70;;;0.70;;
36457;SDS011;22480;50.546;12.292;2022-09-01T14:27:58;2.65;;;1.00;;
36457;SDS011;22480;50.546;12.292;2022-09-01T14:30:27;2.47;;;0.70;;
36457;SDS011;22480;50.546;12.292;2022-09-01T14:32:54;2.95;;;0.80;;
36457;SDS011;22480;50.546;12.292;2022-09-01T14:35:20;1.55;;;0.65;;
36457;SDS011;22480;50.546;12.292;2022-09-01T14:37:49;2.87;;;1.10;;
36457;SDS011;22480;50.546;12.292;2022-09-01T14:40:16;2.13;;;1.00;;
36457;SDS011;22480;50.546;12.292;2022-09-01T14:42:45;0.77;;;0.60;;
36457;SDS011;22480;50.546;12.292;2022-09-01T14:45:14;3.83;;;1.07;;
36457;SDS011;22480;50.546;12.292;2022-09-01T14:47:43;2.72;;;0.70;;
36457;SDS011;22480;50.546;12.292;2022-09-01T14:50:09;1.65;;;0.80;;
36457;SDS011;22480;50.546;12.292;2022-09-01T14:52:36;2.72;;;1.00;;
36457;SDS011;22480;50.546;12.292;2022-09-01T14:55:02;2.28;;;0.90;;
36457;SDS011;22480;50.546;12.292;2022-09-01T14:57:29;9.02;;;1.30;;
36457;SDS011;22480;50.546;12.292;2022-09-01T14:59:56;2.78;;;0.98;;
36457;SDS011;22480;50.546;12.292;2022-09-01T15:02:22;1.25;;;0.75;;
36457;SDS011;22480;50.546;12.292;2022-09-01T15:04:49;2.55;;;0.90;;
36457;SDS011;22480;50.546;12.292;2022-09-01T15:07:15;1.38;;;0.77;;
36457;SDS011;22480;50.546;12.292;2022-09-01T15:09:42;5.47;;;0.80;;
36457;SDS011;22480;50.546;12.292;2022-09-01T15:12:08;1.77;;;0.90;;
36457;SDS011;22480;50.546;12.292;2022-09-01T15:14:35;1.05;;;0.60;;
36457;SDS011;22480;50.546;12.292;2022-09-01T15:17:01;5.15;;;1.08;;
36457;SDS011;22480;50.546;12.292;2022-09-01T15:19:27;2.17;;;0.82;;
36457;SDS011;22480;50.546;12.292;2022-09-01T15:21:53;3.35;;;0.80;;
36457;SDS011;22480;50.546;12.292;2022-09-01T15:24:19;2.45;;;0.70;;
36457;SDS011;22480;50.546;12.292;2022-09-01T15:26:45;2.65;;;1.10;;
36457;SDS011;22480;50.546;12.292;2022-09-01T15:29:11;3.88;;;0.77;;
36457;SDS011;22480;50.546;12.292;2022-09-01T15:31:40;2.67;;;1.10;;
36457;SDS011;22480;50.546;12.292;2022-09-01T15:34:07;1.02;;;0.90;;
36457;SDS011;22480;50.546;12.292;2022-09-01T15:36:35;1.20;;;0.70;;
36457;SDS011;22480;50.546;12.292;2022-09-01T15:39:04;9.40;;;1.20;;
36457;SDS011;22480;50.546;12.292;2022-09-01T15:41:31;1.23;;;0.80;;
36457;SDS011;22480;50.546;12.292;2022-09-01T15:43:58;0.88;;;0.68;;
36457;SDS011;22480;50.546;12.292;2022-09-01T15:46:25;3.33;;;0.90;;
36457;SDS011;22480;50.546;12.292;2022-09-01T15:49:01;3.28;;;0.93;;
36457;SDS011;22480;50.546;12.292;2022-09-01T15:51:30;1.50;;;0.90;;
36457;SDS011;22480;50.546;12.292;2022-09-01T15:54:05;6.43;;;1.17;;
36457;SDS011;22480;50.546;12.292;2022-09-01T15:56:40;1.35;;;0.80;;
36457;SDS011;22480;50.546;12.292;2022-09-01T15:59:07;4.20;;;0.82;;
36457;SDS011;22480;50.546;12.292;2022-09-01T16:01:34;3.42;;;0.70;;
36457;SDS011;22480;50.546;12.292;2022-09-01T16:04:06;1.38;;;0.60;;
36457;SDS011;22480;50.546;12.292;2022-09-01T16:06:33;3.38;;;0.82;;
36457;SDS011;22480;50.546;12.292;2022-09-01T16:08:59;2.50;;;0.50;;
36457;SDS011;22480;50.546;12.292;2022-09-01T16:11:25;0.93;;;0.75;;
36457;SDS011;22480;50.546;12.292;2022-09-01T16:13:51;1.88;;;0.70;;
36457;SDS011;22480;50.546;12.292;2022-09-01T16:24:17;1.08;;;0.70;;
36457;SDS011;22480;50.546;12.292;2022-09-01T16:26:45;2.22;;;1.00;;
36457;SDS011;22480;50.546;12.292;2022-09-01T16:29:20;2.35;;;0.70;;
36457;SDS011;22480;50.546;12.292;2022-09-01T16:32:06;2.35;;;0.80;;
36457;SDS011;22480;50.546;12.292;2022-09-01T16:34:31;1.63;;;0.70;;